createdAt,value
2023-02-25T00:02:11.886Z,4.60
2023-02-25T00:04:43.356Z,4.00
2023-02-25T00:07:12.480Z,3.50
2023-02-25T00:09:41.302Z,3.47
2023-02-25T00:12:10.388Z,3.60
2023-02-25T00:14:39.258Z,2.70
2023-02-25T00:17:08.148Z,2.93
2023-02-25T00:19:37.255Z,3.17
2023-02-25T00:22:07.424Z,2.53
2023-02-25T00:24:35.971Z,2.97
2023-02-25T00:27:04.816Z,2.80
2023-02-25T00:29:33.557Z,2.23
2023-02-25T00:32:02.313Z,3.00
2023-02-25T00:34:31.278Z,2.77
2023-02-25T00:36:59.944Z,2.40
2023-02-25T00:39:42.132Z,2.33
2023-02-25T00:42:10.952Z,2.23
2023-02-25T00:44:39.788Z,3.17
2023-02-25T00:47:08.861Z,2.70
2023-02-25T00:49:37.475Z,2.50
2023-02-25T00:52:06.572Z,2.50
2023-02-25T00:54:36.925Z,2.43
2023-02-25T00:57:05.680Z,2.23
2023-02-25T00:59:34.385Z,2.83
2023-02-25T01:02:04.411Z,2.73
2023-02-25T01:04:33.342Z,2.93
2023-02-25T01:07:07.998Z,3.03
2023-02-25T01:09:38.069Z,2.73
2023-02-25T01:12:06.990Z,2.70
2023-02-25T01:14:35.826Z,3.60
2023-02-25T01:17:04.444Z,2.60
2023-02-25T01:19:33.011Z,2.53
2023-02-25T01:22:01.907Z,2.63
2023-02-25T01:24:32.144Z,2.70
2023-02-25T01:27:03.811Z,2.77
2023-02-25T01:29:34.118Z,2.63
2023-02-25T01:32:05.137Z,2.57
2023-02-25T01:34:34.295Z,2.47
2023-02-25T01:37:03.216Z,2.40
2023-02-25T01:39:32.619Z,2.63
2023-02-25T01:42:06.437Z,2.80
2023-02-25T01:44:39.095Z,2.63
2023-02-25T01:47:08.099Z,2.57
2023-02-25T01:49:41.477Z,2.50
2023-02-25T01:52:13.691Z,2.47
2023-02-25T01:54:45.362Z,3.00
2023-02-25T01:57:18.543Z,2.10
2023-02-25T01:59:48.616Z,2.27
2023-02-25T02:02:21.179Z,1.87
2023-02-25T02:04:53.417Z,1.90
2023-02-25T02:07:24.894Z,2.20
2023-02-25T02:09:57.294Z,2.83
2023-02-25T02:12:30.167Z,2.77
2023-02-25T02:15:00.108Z,2.40
2023-02-25T02:17:32.905Z,2.87
2023-02-25T02:20:14.296Z,2.40
2023-02-25T02:22:56.295Z,1.83
2023-02-25T02:25:48.037Z,2.70
2023-02-25T02:28:48.829Z,3.07
2023-02-25T02:31:42.996Z,2.90
2023-02-25T02:34:22.030Z,2.40
2023-02-25T02:37:00.578Z,2.37
2023-02-25T02:39:35.478Z,2.83
2023-02-25T02:42:12.713Z,2.47
2023-02-25T02:44:51.414Z,2.20
2023-02-25T02:47:26.858Z,2.77
2023-02-25T02:49:59.040Z,2.60
2023-02-25T02:52:31.709Z,3.00
2023-02-25T02:55:05.329Z,2.73
2023-02-25T02:57:36.650Z,2.93
2023-02-25T03:00:17.464Z,2.80
2023-02-25T03:02:52.032Z,3.10
2023-02-25T03:05:21.416Z,2.87
2023-02-25T03:07:59.648Z,2.97
2023-02-25T03:10:28.505Z,2.97
2023-02-25T03:12:57.144Z,2.80
2023-02-25T03:15:27.080Z,3.77
2023-02-25T03:18:01.364Z,2.93
2023-02-25T03:20:34.942Z,3.20
2023-02-25T03:23:10.226Z,3.10
2023-02-25T03:25:47.915Z,3.33
2023-02-25T03:28:25.799Z,3.10
2023-02-25T03:31:01.824Z,3.00
2023-02-25T03:33:38.193Z,3.97
2023-02-25T03:36:12.150Z,3.27
2023-02-25T03:38:46.120Z,3.47
2023-02-25T03:41:18.360Z,3.17
2023-02-25T03:43:50.525Z,3.20
2023-02-25T03:46:23.839Z,3.20
2023-02-25T03:48:55.534Z,2.60
2023-02-25T03:51:30.388Z,2.90
2023-02-25T03:53:58.893Z,3.57
2023-02-25T03:56:27.442Z,3.30
2023-02-25T03:58:56.165Z,3.37
2023-02-25T04:01:29.502Z,3.00
2023-02-25T04:03:59.596Z,2.67
2023-02-25T04:06:28.037Z,2.70
2023-02-25T04:08:56.641Z,3.40
2023-02-25T04:11:25.378Z,2.90
2023-02-25T04:13:54.692Z,3.43
2023-02-25T04:16:26.100Z,2.60
2023-02-25T04:18:54.640Z,2.87
2023-02-25T04:21:33.562Z,3.23
2023-02-25T04:24:02.435Z,2.90
2023-02-25T04:26:30.938Z,2.50
2023-02-25T04:28:59.415Z,3.00
2023-02-25T04:31:28.130Z,2.97
2023-02-25T04:33:58.312Z,4.47
2023-02-25T04:36:29.455Z,2.87
2023-02-25T04:39:00.443Z,3.03
2023-02-25T04:41:32.786Z,2.67
2023-02-25T04:44:04.051Z,3.17
2023-02-25T04:46:33.235Z,3.13
2023-02-25T04:49:01.771Z,2.43
2023-02-25T04:51:30.431Z,3.20
2023-02-25T04:54:00.824Z,3.37
2023-02-25T04:56:29.543Z,2.87
2023-02-25T04:58:59.002Z,3.30
2023-02-25T05:01:27.646Z,3.13
2023-02-25T05:03:57.174Z,2.87
2023-02-25T05:06:26.374Z,3.33
2023-02-25T05:08:55.207Z,2.97
2023-02-25T05:11:26.384Z,2.73
2023-02-25T05:13:56.132Z,2.83
2023-02-25T05:16:27.829Z,2.90
2023-02-25T05:18:56.720Z,2.73
2023-02-25T05:21:27.066Z,3.17
2023-02-25T05:23:55.682Z,2.77
2023-02-25T05:26:26.700Z,2.60
2023-02-25T05:28:56.854Z,2.53
2023-02-25T05:31:26.437Z,2.43
2023-02-25T05:33:55.328Z,2.77
2023-02-25T05:36:27.772Z,2.80
2023-02-25T05:38:58.987Z,2.90
2023-02-25T05:41:29.117Z,2.70
2023-02-25T05:43:58.417Z,2.93
2023-02-25T05:46:27.574Z,2.57
2023-02-25T05:48:56.254Z,3.37
2023-02-25T05:51:25.077Z,2.90
2023-02-25T05:53:54.307Z,2.43
2023-02-25T05:56:25.662Z,2.97
2023-02-25T05:58:56.584Z,3.17
2023-02-25T06:01:27.957Z,3.27
2023-02-25T06:03:58.960Z,2.70
2023-02-25T06:06:29.501Z,2.70
2023-02-25T06:08:58.321Z,3.57
2023-02-25T06:11:29.356Z,2.90
2023-02-25T06:14:00.475Z,3.13
2023-02-25T06:16:32.496Z,3.03
2023-02-25T06:19:02.497Z,2.40
2023-02-25T06:21:31.600Z,2.57
2023-02-25T06:24:00.501Z,2.30
2023-02-25T06:26:29.408Z,3.33
2023-02-25T06:28:59.533Z,4.00
2023-02-25T06:31:28.305Z,2.53
2023-02-25T06:33:56.736Z,2.90
2023-02-25T06:36:26.126Z,3.00
2023-02-25T06:38:54.956Z,3.07
2023-02-25T06:41:24.237Z,2.90
2023-02-25T06:43:53.723Z,2.70
2023-02-25T06:46:26.680Z,2.83
2023-02-25T06:48:55.904Z,3.17
2023-02-25T06:51:25.890Z,2.67
2023-02-25T06:53:54.372Z,3.23
2023-02-25T06:56:23.413Z,2.80
2023-02-25T06:58:52.801Z,3.00
2023-02-25T07:01:21.657Z,2.90
2023-02-25T07:03:52.148Z,3.03
2023-02-25T07:06:21.913Z,3.33
2023-02-25T07:08:50.844Z,2.90
2023-02-25T07:11:29.943Z,2.80
2023-02-25T07:13:59.106Z,3.37
2023-02-25T07:16:30.094Z,2.83
2023-02-25T07:19:01.835Z,3.00
2023-02-25T07:21:31.360Z,3.03
2023-02-25T07:24:00.142Z,3.40
2023-02-25T07:26:29.444Z,2.87
2023-02-25T07:28:59.213Z,3.40
2023-02-25T07:31:29.198Z,4.83
2023-02-25T07:34:03.873Z,3.30
2023-02-25T07:36:33.571Z,3.07
2023-02-25T07:39:04.271Z,3.00
2023-02-25T07:41:32.798Z,3.40
2023-02-25T07:44:01.886Z,3.10
2023-02-25T07:46:31.660Z,3.37
2023-02-25T07:49:02.111Z,3.00
2023-02-25T07:51:30.841Z,3.47
2023-02-25T07:54:00.734Z,2.93
2023-02-25T07:56:31.328Z,2.93
2023-02-25T07:58:59.909Z,3.17
2023-02-25T08:01:31.163Z,3.43
2023-02-25T08:04:04.918Z,3.07
2023-02-25T08:06:36.362Z,2.73
2023-02-25T08:09:05.897Z,3.20
2023-02-25T08:11:34.795Z,2.93
2023-02-25T08:14:03.737Z,2.70
2023-02-25T08:16:32.696Z,3.30
2023-02-25T08:19:02.713Z,2.83
2023-02-25T08:21:31.582Z,2.90
2023-02-25T08:24:01.709Z,2.10
2023-02-25T08:26:30.361Z,2.43
2023-02-25T08:28:59.215Z,2.10
2023-02-25T08:31:29.031Z,1.83
2023-02-25T08:33:59.652Z,2.30
2023-02-25T08:36:31.810Z,2.17
2023-02-25T08:39:01.286Z,2.10
2023-02-25T08:41:30.972Z,2.33
2023-02-25T08:44:02.262Z,1.97
2023-02-25T08:46:32.708Z,1.93
2023-02-25T08:49:01.457Z,1.70
2023-02-25T08:51:35.247Z,2.70
2023-02-25T08:54:05.982Z,2.10
2023-02-25T08:56:35.397Z,2.27
2023-02-25T08:59:04.281Z,2.40
2023-02-25T09:01:45.127Z,1.90
2023-02-25T09:04:14.951Z,1.60
2023-02-25T09:06:47.582Z,1.73
2023-02-25T09:09:16.749Z,1.70
2023-02-25T09:11:45.844Z,1.70
2023-02-25T09:14:15.274Z,2.73
2023-02-25T09:16:43.961Z,1.43
2023-02-25T09:19:15.987Z,1.57
2023-02-25T09:21:48.512Z,1.50
2023-02-25T09:24:18.014Z,1.57
2023-02-25T09:26:46.794Z,1.50
2023-02-25T09:29:15.479Z,1.37
2023-02-25T09:31:44.406Z,1.20
2023-02-25T09:34:16.621Z,1.20
2023-02-25T09:36:46.715Z,1.20
2023-02-25T09:39:15.341Z,0.80
2023-02-25T09:41:55.242Z,1.07
2023-02-25T09:44:27.173Z,1.93
2023-02-25T09:47:15.256Z,0.80
2023-02-25T09:49:49.078Z,0.77
2023-02-25T09:52:25.165Z,0.70
2023-02-25T09:54:59.428Z,0.63
2023-02-25T09:57:29.766Z,0.50
2023-02-25T09:59:59.247Z,0.77
2023-02-25T10:02:37.285Z,0.60
2023-02-25T10:05:25.922Z,0.90
2023-02-25T10:08:08.048Z,0.90
2023-02-25T10:10:46.874Z,0.60
2023-02-25T10:13:25.692Z,0.70
2023-02-25T10:16:05.127Z,0.70
2023-02-25T10:18:55.099Z,0.70
2023-02-25T10:21:37.809Z,0.60
2023-02-25T10:24:21.590Z,1.00
2023-02-25T10:26:52.734Z,1.30
2023-02-25T10:29:29.641Z,1.00
2023-02-25T10:32:01.296Z,1.13
2023-02-25T10:34:33.353Z,0.90
2023-02-25T10:37:02.646Z,0.90
2023-02-25T10:39:32.855Z,0.90
2023-02-25T10:42:02.885Z,1.07
2023-02-25T10:44:31.535Z,1.00
2023-02-25T10:47:05.243Z,1.10
2023-02-25T10:49:38.465Z,0.90
2023-02-25T10:52:10.535Z,1.23
2023-02-25T10:54:49.471Z,1.30
2023-02-25T10:57:20.328Z,1.50
2023-02-25T10:59:49.638Z,1.30
2023-02-25T11:02:25.999Z,1.03
2023-02-25T11:04:56.492Z,1.37
2023-02-25T11:07:31.112Z,1.07
2023-02-25T11:10:16.574Z,1.10
2023-02-25T11:12:46.934Z,1.70
2023-02-25T11:15:44.696Z,1.40
2023-02-25T11:18:21.504Z,1.00
2023-02-25T11:20:53.371Z,1.40
2023-02-25T11:23:26.573Z,1.13
2023-02-25T11:25:58.534Z,1.40
2023-02-25T11:28:34.520Z,1.10
2023-02-25T11:31:14.382Z,1.20
2023-02-25T11:33:47.155Z,1.20
2023-02-25T11:36:23.690Z,1.30
2023-02-25T11:39:09.694Z,1.20
2023-02-25T11:41:39.840Z,1.10
2023-02-25T11:44:28.428Z,1.40
2023-02-25T11:47:08.526Z,1.07
2023-02-25T11:49:52.636Z,1.07
2023-02-25T11:52:26.641Z,1.20
2023-02-25T11:55:11.918Z,1.30
2023-02-25T11:57:51.011Z,1.37
2023-02-25T12:00:28.176Z,1.47
2023-02-25T12:03:12.015Z,1.20
2023-02-25T12:06:08.143Z,1.23
2023-02-25T12:08:43.924Z,1.43
2023-02-25T12:12:02.891Z,1.20
2023-02-25T12:15:11.980Z,1.13
2023-02-25T12:18:19.284Z,1.30
2023-02-25T12:21:31.927Z,1.00
2023-02-25T12:24:28.485Z,1.20
2023-02-25T12:27:26.806Z,1.33
2023-02-25T12:30:30.502Z,1.23
2023-02-25T12:33:11.013Z,1.60
2023-02-25T12:35:56.401Z,1.37
2023-02-25T12:39:13.583Z,1.20
2023-02-25T12:41:47.740Z,1.13
2023-02-25T12:44:52.131Z,1.23
2023-02-25T12:47:33.858Z,1.20
2023-02-25T12:50:25.535Z,1.00
2023-02-25T12:53:07.745Z,1.30
2023-02-25T12:55:59.950Z,1.20
2023-02-25T12:58:36.057Z,1.47
2023-02-25T13:01:39.450Z,0.90
2023-02-25T13:04:44.235Z,1.07
2023-02-25T13:07:36.534Z,0.97
2023-02-25T13:10:21.282Z,1.20
2023-02-25T13:13:12.074Z,0.77
2023-02-25T13:15:57.224Z,0.87
2023-02-25T13:18:34.083Z,0.90
2023-02-25T13:21:31.388Z,0.80
2023-02-25T13:24:20.527Z,0.90
2023-02-25T13:27:11.293Z,0.80
2023-02-25T13:30:15.412Z,0.90
2023-02-25T13:32:51.978Z,0.97
2023-02-25T13:35:36.973Z,1.00
2023-02-25T13:38:21.564Z,1.03
2023-02-25T13:41:07.427Z,0.87
2023-02-25T13:44:12.247Z,1.03
2023-02-25T13:47:11.682Z,0.80
2023-02-25T13:50:12.008Z,0.90
2023-02-25T13:52:55.999Z,1.97
2023-02-25T13:55:44.617Z,0.70
2023-02-25T13:58:42.550Z,0.90
2023-02-25T14:01:39.802Z,0.93
2023-02-25T14:04:25.546Z,0.70
2023-02-25T14:07:37.217Z,0.60
2023-02-25T14:10:34.352Z,1.80
2023-02-25T14:13:28.337Z,0.90
2023-02-25T14:16:08.076Z,0.60
2023-02-25T14:18:52.246Z,0.60
2023-02-25T14:21:45.167Z,0.60
2023-02-25T14:24:21.077Z,0.53
2023-02-25T14:27:01.600Z,0.73
2023-02-25T14:29:39.846Z,0.90
2023-02-25T14:32:40.196Z,0.53
2023-02-25T14:35:29.112Z,0.60
2023-02-25T14:38:09.393Z,0.30
2023-02-25T14:40:46.632Z,0.80
2023-02-25T14:43:29.844Z,1.13
2023-02-25T14:46:05.990Z,0.60
2023-02-25T14:48:42.951Z,0.60
2023-02-25T14:51:56.448Z,0.70
2023-02-25T14:54:50.687Z,0.80
2023-02-25T14:57:52.064Z,1.20
2023-02-25T15:00:49.462Z,0.83
2023-02-25T15:03:43.131Z,0.70
2023-02-25T15:06:32.650Z,0.70
2023-02-25T15:09:25.108Z,0.80
2023-02-25T15:12:09.066Z,0.97
2023-02-25T15:15:17.634Z,1.43
2023-02-25T15:18:32.159Z,0.80
2023-02-25T15:21:21.922Z,0.40
2023-02-25T15:23:53.400Z,0.93
2023-02-25T15:26:26.015Z,0.90
2023-02-25T15:28:56.205Z,0.80
2023-02-25T15:31:31.056Z,0.60
2023-02-25T15:34:33.385Z,0.63
2023-02-25T15:37:36.925Z,0.73
2023-02-25T15:40:39.364Z,0.67
2023-02-25T15:43:44.694Z,0.93
2023-02-25T15:46:44.142Z,0.77
2023-02-25T15:49:29.647Z,0.47
2023-02-25T15:52:01.694Z,0.70
2023-02-25T15:54:51.317Z,0.77
2023-02-25T15:57:42.044Z,0.93
2023-02-25T16:00:56.956Z,1.37
2023-02-25T16:03:45.096Z,1.60
2023-02-25T16:06:17.443Z,0.90
2023-02-25T16:08:56.836Z,1.27
2023-02-25T16:11:38.817Z,0.83
2023-02-25T16:14:14.149Z,2.10
2023-02-25T16:16:47.591Z,1.83
2023-02-25T16:19:20.531Z,1.40
2023-02-25T16:21:53.681Z,0.87
2023-02-25T16:24:24.167Z,0.80
2023-02-25T16:27:00.529Z,1.60
2023-02-25T16:29:47.852Z,1.23
2023-02-25T16:32:27.764Z,1.60
2023-02-25T16:35:10.340Z,1.03
2023-02-25T16:37:46.988Z,0.90
2023-02-25T16:40:21.810Z,0.80
2023-02-25T16:42:50.788Z,1.10
2023-02-25T16:45:30.949Z,0.70
2023-02-25T16:48:03.638Z,0.77
2023-02-25T16:50:35.547Z,0.60
2023-02-25T16:53:06.900Z,1.17
2023-02-25T16:55:40.678Z,0.70
2023-02-25T16:58:22.397Z,1.10
2023-02-25T17:00:53.616Z,1.00
2023-02-25T17:03:24.068Z,0.80
2023-02-25T17:06:07.308Z,0.80
2023-02-25T17:08:36.849Z,0.80
2023-02-25T17:11:07.624Z,0.87
2023-02-25T17:13:39.125Z,0.90
2023-02-25T17:16:11.561Z,0.93
2023-02-25T17:18:47.409Z,1.10
2023-02-25T17:21:24.945Z,1.10
2023-02-25T17:23:54.949Z,0.77
2023-02-25T17:26:25.520Z,1.13
2023-02-25T17:28:56.895Z,1.03
2023-02-25T17:31:27.890Z,1.00
2023-02-25T17:33:58.618Z,1.10
2023-02-25T17:36:34.882Z,1.03
2023-02-25T17:39:09.218Z,0.70
2023-02-25T17:41:42.688Z,0.80
2023-02-25T17:44:12.343Z,1.10
2023-02-25T17:46:44.731Z,0.90
2023-02-25T17:49:22.245Z,0.80
2023-02-25T17:51:56.936Z,0.97
2023-02-25T17:54:27.411Z,1.10
2023-02-25T17:57:01.212Z,1.00
2023-02-25T17:59:39.006Z,0.97
2023-02-25T18:02:29.213Z,1.13
2023-02-25T18:05:25.825Z,0.73
2023-02-25T18:08:19.347Z,2.50
2023-02-25T18:10:51.481Z,0.63
2023-02-25T18:13:31.272Z,0.83
2023-02-25T18:16:29.701Z,1.20
2023-02-25T18:19:00.045Z,1.43
2023-02-25T18:21:29.799Z,0.97
2023-02-25T18:24:02.468Z,0.67
2023-02-25T18:26:31.504Z,0.70
2023-02-25T18:29:00.547Z,0.90
2023-02-25T18:31:29.523Z,1.10
2023-02-25T18:33:58.599Z,0.63
2023-02-25T18:36:30.054Z,1.30
2023-02-25T18:39:04.963Z,0.80
2023-02-25T18:41:34.354Z,0.83
2023-02-25T18:44:03.604Z,0.93
2023-02-25T18:46:32.432Z,1.23
2023-02-25T18:49:01.581Z,1.10
2023-02-25T18:51:30.305Z,1.00
2023-02-25T18:54:01.085Z,0.87
2023-02-25T18:56:29.971Z,0.90
2023-02-25T18:58:59.506Z,0.83
2023-02-25T19:01:33.175Z,1.03
2023-02-25T19:04:02.419Z,0.70
2023-02-25T19:06:34.088Z,0.73
2023-02-25T19:09:07.594Z,0.70
2023-02-25T19:11:38.272Z,1.07
2023-02-25T19:14:08.613Z,1.00
2023-02-25T19:16:40.640Z,0.60
2023-02-25T19:19:09.317Z,0.80
2023-02-25T19:21:40.429Z,1.30
2023-02-25T19:24:13.740Z,1.60
2023-02-25T19:26:46.120Z,1.13
2023-02-25T19:29:20.252Z,1.33
2023-02-25T19:31:49.016Z,1.67
2023-02-25T19:34:18.454Z,1.70
2023-02-25T19:36:47.308Z,1.50
2023-02-25T19:39:18.176Z,1.37
2023-02-25T19:41:47.221Z,1.63
2023-02-25T19:44:16.372Z,1.40
2023-02-25T19:46:45.699Z,1.87
2023-02-25T19:49:14.698Z,1.63
2023-02-25T19:51:43.937Z,2.07
2023-02-25T19:54:15.920Z,1.80
2023-02-25T19:56:46.833Z,1.67
2023-02-25T19:59:18.374Z,1.60
2023-02-25T20:01:47.613Z,2.13
2023-02-25T20:04:16.644Z,1.30
2023-02-25T20:06:45.501Z,1.93
2023-02-25T20:09:14.372Z,1.23
2023-02-25T20:11:46.777Z,1.80
2023-02-25T20:14:19.479Z,1.93
2023-02-25T20:16:48.673Z,1.97
2023-02-25T20:19:21.701Z,2.13
2023-02-25T20:21:50.765Z,2.10
2023-02-25T20:24:19.711Z,2.40
2023-02-25T20:26:49.697Z,2.30
2023-02-25T20:29:20.174Z,2.40
2023-02-25T20:31:49.233Z,1.97
2023-02-25T20:34:21.524Z,1.47
2023-02-25T20:36:54.520Z,1.47
2023-02-25T20:39:49.716Z,1.57
2023-02-25T20:42:21.588Z,1.63
2023-02-25T20:44:53.883Z,1.30
2023-02-25T20:47:24.275Z,1.50
2023-02-25T20:49:54.587Z,1.40
2023-02-25T20:52:24.142Z,1.13
2023-02-25T20:54:53.057Z,1.00
2023-02-25T20:57:24.031Z,1.40
2023-02-25T20:59:55.250Z,0.90
2023-02-25T21:02:24.702Z,1.80
2023-02-25T21:04:53.865Z,1.07
2023-02-25T21:07:23.807Z,1.20
2023-02-25T21:09:53.923Z,1.00
2023-02-25T21:12:22.756Z,1.27
2023-02-25T21:14:52.416Z,0.93
2023-02-25T21:17:23.122Z,0.90
2023-02-25T21:19:52.071Z,1.00
2023-02-25T21:22:21.319Z,1.00
2023-02-25T21:24:50.934Z,0.87
2023-02-25T21:27:20.199Z,1.43
2023-02-25T21:29:49.323Z,0.90
2023-02-25T21:32:19.152Z,0.80
2023-02-25T21:34:49.501Z,1.17
2023-02-25T21:37:24.086Z,1.23
2023-02-25T21:39:55.525Z,0.90
2023-02-25T21:42:24.570Z,1.00
2023-02-25T21:44:53.774Z,0.70
2023-02-25T21:47:22.382Z,0.80
2023-02-25T21:49:54.870Z,0.70
2023-02-25T21:52:23.616Z,0.63
2023-02-25T21:54:52.983Z,0.83
2023-02-25T21:57:22.065Z,0.60
2023-02-25T21:59:53.811Z,0.80
2023-02-25T22:02:22.704Z,0.80
2023-02-25T22:04:53.166Z,1.00
2023-02-25T22:07:24.419Z,0.67
2023-02-25T22:09:53.372Z,0.70
2023-02-25T22:12:22.504Z,0.70
2023-02-25T22:14:51.419Z,1.10
2023-02-25T22:17:20.317Z,1.43
2023-02-25T22:19:48.997Z,2.37
2023-02-25T22:22:20.349Z,1.50
2023-02-25T22:24:49.034Z,1.30
2023-02-25T22:27:17.787Z,1.17
2023-02-25T22:29:46.684Z,0.93
2023-02-25T22:32:17.066Z,1.00
2023-02-25T22:34:46.763Z,35.37
2023-02-25T22:37:15.641Z,17.57
2023-02-25T22:39:45.743Z,12.97
2023-02-25T22:42:16.982Z,7.90
2023-02-25T22:44:46.069Z,8.43
2023-02-25T22:47:15.059Z,4.40
2023-02-25T22:49:43.844Z,12.53
2023-02-25T22:52:12.586Z,17.10
2023-02-25T22:54:41.289Z,43.10
2023-02-25T22:57:11.860Z,28.30
2023-02-25T22:59:40.603Z,9.97
2023-02-25T23:02:12.648Z,16.73
2023-02-25T23:04:42.866Z,15.57
2023-02-25T23:07:12.532Z,9.97
2023-02-25T23:09:41.634Z,8.43
2023-02-25T23:12:12.688Z,4.27
2023-02-25T23:14:41.463Z,3.33
2023-02-25T23:17:10.226Z,3.03
2023-02-25T23:19:39.068Z,1.90
2023-02-25T23:22:12.943Z,1.80
2023-02-25T23:24:41.779Z,0.90
2023-02-25T23:27:11.921Z,1.80
2023-02-25T23:29:40.742Z,1.60
2023-02-25T23:32:12.140Z,1.47
2023-02-25T23:34:43.325Z,1.50
2023-02-25T23:37:13.823Z,1.03
2023-02-25T23:39:43.692Z,1.03
2023-02-25T23:42:13.820Z,1.10
2023-02-25T23:44:42.611Z,1.03
2023-02-25T23:47:11.375Z,1.33
2023-02-25T23:49:40.182Z,1.00
2023-02-25T23:52:10.817Z,1.20
2023-02-25T23:54:40.899Z,1.30
2023-02-25T23:57:09.617Z,0.80
2023-02-25T23:59:39.675Z,0.90
